createdAt,value
2017-07-20T00:02:19.277Z,29.02
2017-07-20T00:04:45.967Z,27.98
2017-07-20T00:07:12.636Z,26.17
2017-07-20T00:09:39.325Z,30.02
2017-07-20T00:12:05.992Z,31.05
2017-07-20T00:14:32.675Z,31.77
2017-07-20T00:16:59.338Z,31.23
2017-07-20T00:19:26.032Z,33.65
2017-07-20T00:21:52.701Z,32.47
2017-07-20T00:24:19.396Z,33.50
2017-07-20T00:26:46.063Z,36.38
2017-07-20T00:29:12.757Z,36.17
2017-07-20T00:31:39.428Z,35.85
2017-07-20T00:34:06.121Z,37.63
2017-07-20T00:36:32.794Z,38.03
2017-07-20T00:38:59.488Z,36.92
2017-07-20T00:41:26.159Z,39.47
2017-07-20T00:43:52.855Z,38.75
2017-07-20T00:46:19.523Z,40.63
2017-07-20T00:48:46.212Z,40.17
2017-07-20T00:51:12.875Z,41.70
2017-07-20T00:53:39.572Z,46.08
2017-07-20T00:56:06.242Z,46.35
2017-07-20T00:58:32.912Z,44.28
2017-07-20T01:00:59.576Z,47.00
2017-07-20T01:03:26.248Z,48.25
2017-07-20T01:05:52.923Z,48.47
2017-07-20T01:08:19.590Z,48.50
2017-07-20T01:10:46.268Z,47.88
2017-07-20T01:13:12.933Z,46.28
2017-07-20T01:15:39.600Z,47.33
2017-07-20T01:18:06.269Z,50.42
2017-07-20T01:20:32.936Z,47.42
2017-07-20T01:22:59.600Z,47.08
2017-07-20T01:25:26.279Z,44.65
2017-07-20T01:27:52.959Z,49.80
2017-07-20T01:30:19.619Z,47.17
2017-07-20T01:32:46.288Z,45.00
2017-07-20T01:35:12.979Z,46.35
2017-07-20T01:37:39.651Z,39.80
2017-07-20T01:40:06.335Z,43.08
2017-07-20T01:42:33.003Z,45.12
2017-07-20T01:44:59.689Z,43.38
2017-07-20T01:47:26.355Z,40.67
2017-07-20T01:49:53.052Z,42.80
2017-07-20T01:52:19.724Z,44.47
2017-07-20T01:54:46.416Z,41.90
2017-07-20T01:57:13.088Z,38.53
2017-07-20T01:59:39.776Z,38.78
2017-07-20T02:02:06.450Z,39.47
2017-07-20T02:04:33.153Z,39.53
2017-07-20T02:06:59.815Z,36.88
2017-07-20T02:09:26.475Z,37.38
2017-07-20T02:11:53.143Z,35.33
2017-07-20T02:14:19.803Z,38.75
2017-07-20T02:16:46.467Z,35.80
2017-07-20T02:19:13.127Z,36.55
2017-07-20T02:21:39.787Z,33.38
2017-07-20T02:24:06.451Z,34.97
2017-07-20T02:26:33.116Z,33.92
2017-07-20T02:28:59.775Z,35.22
2017-07-20T02:31:26.436Z,36.72
2017-07-20T02:33:53.107Z,34.28
2017-07-20T02:36:19.778Z,34.65
2017-07-20T02:38:46.452Z,35.10
2017-07-20T02:41:13.119Z,34.72
2017-07-20T02:43:39.791Z,32.03
2017-07-20T02:46:06.456Z,32.08
2017-07-20T02:48:33.127Z,32.28
2017-07-20T02:50:59.808Z,32.17
2017-07-20T02:53:26.475Z,32.45
2017-07-20T02:55:53.140Z,33.08
2017-07-20T02:58:19.803Z,31.20
2017-07-20T03:00:46.465Z,31.80
2017-07-20T03:03:13.132Z,31.90
2017-07-20T03:05:39.800Z,29.50
2017-07-20T03:08:06.469Z,29.37
2017-07-20T03:10:33.135Z,31.92
2017-07-20T03:12:59.801Z,29.90
2017-07-20T03:15:26.473Z,30.92
2017-07-20T03:17:53.140Z,29.35
2017-07-20T03:20:19.835Z,28.52
2017-07-20T03:22:46.505Z,29.42
2017-07-20T03:25:13.179Z,27.75
2017-07-20T03:27:39.876Z,28.08
2017-07-20T03:30:06.541Z,30.17
2017-07-20T03:32:33.231Z,30.77
2017-07-20T03:34:59.897Z,29.33
2017-07-20T03:37:26.598Z,30.77
2017-07-20T03:39:53.263Z,29.75
2017-07-20T03:42:19.951Z,29.37
2017-07-20T03:44:46.615Z,26.23
2017-07-20T03:47:13.316Z,27.23
2017-07-20T03:49:39.988Z,28.92
2017-07-20T03:52:06.919Z,27.95
2017-07-20T03:54:33.587Z,28.75
2017-07-20T03:57:00.292Z,28.10
2017-07-20T03:59:26.957Z,28.08
2017-07-20T04:01:53.651Z,27.45
2017-07-20T04:04:20.319Z,26.90
2017-07-20T04:06:47.003Z,28.08
2017-07-20T04:09:13.676Z,27.83
2017-07-20T04:11:40.367Z,25.02
2017-07-20T04:14:07.036Z,28.62
2017-07-20T04:16:33.739Z,27.40
2017-07-20T04:19:00.408Z,27.75
2017-07-20T04:21:27.100Z,26.48
2017-07-20T04:23:53.768Z,27.20
2017-07-20T04:26:20.460Z,26.87
2017-07-20T04:28:47.124Z,25.77
2017-07-20T04:31:13.818Z,25.25
2017-07-20T04:33:40.484Z,27.17
2017-07-20T04:36:07.151Z,25.02
2017-07-20T04:38:33.835Z,24.60
2017-07-20T04:41:00.499Z,25.25
2017-07-20T04:43:27.171Z,23.75
2017-07-20T04:45:53.844Z,23.40
2017-07-20T04:48:20.515Z,22.27
2017-07-20T04:50:47.186Z,20.73
2017-07-20T04:53:13.887Z,20.62
2017-07-20T04:55:40.559Z,19.85
2017-07-20T04:58:07.350Z,18.77
2017-07-20T05:00:34.029Z,20.88
2017-07-20T05:03:00.732Z,21.20
2017-07-20T05:05:27.398Z,20.62
2017-07-20T05:07:54.099Z,20.73
2017-07-20T05:10:20.776Z,18.85
2017-07-20T05:12:47.484Z,18.58
2017-07-20T05:15:14.161Z,18.00
2017-07-20T05:17:40.859Z,18.37
2017-07-20T05:20:07.545Z,18.52
2017-07-20T05:22:34.243Z,18.67
2017-07-20T05:25:00.916Z,17.75
2017-07-20T05:27:27.621Z,19.40
2017-07-20T05:29:54.299Z,20.35
2017-07-20T05:32:20.993Z,21.50
2017-07-20T05:34:47.663Z,20.20
2017-07-20T05:37:14.356Z,22.02
2017-07-20T05:39:41.035Z,22.30
2017-07-20T05:42:07.771Z,20.60
2017-07-20T05:44:34.447Z,17.50
2017-07-20T05:47:01.155Z,17.85
2017-07-20T05:49:27.827Z,18.20
2017-07-20T05:51:54.520Z,17.60
2017-07-20T05:54:21.184Z,15.37
2017-07-20T05:56:47.843Z,15.67
2017-07-20T05:59:14.608Z,13.50
2017-07-20T06:01:41.267Z,13.73
2017-07-20T06:04:07.936Z,12.23
2017-07-20T06:06:34.603Z,11.83
2017-07-20T06:09:01.268Z,12.00
2017-07-20T06:11:27.933Z,12.07
2017-07-20T06:13:54.603Z,11.70
2017-07-20T06:16:21.273Z,13.10
2017-07-20T06:18:47.931Z,11.10
2017-07-20T06:21:14.608Z,11.50
2017-07-20T06:23:41.275Z,10.90
2017-07-20T06:26:07.937Z,9.37
2017-07-20T06:28:34.627Z,10.97
2017-07-20T06:31:01.286Z,11.87
2017-07-20T06:33:27.983Z,11.37
2017-07-20T06:35:54.647Z,10.43
2017-07-20T06:38:21.333Z,11.50
2017-07-20T06:40:47.995Z,10.67
2017-07-20T06:43:14.685Z,11.03
2017-07-20T06:45:41.348Z,10.77
2017-07-20T06:48:08.044Z,10.43
2017-07-20T06:50:34.704Z,9.57
2017-07-20T06:53:01.391Z,10.50
2017-07-20T06:55:28.051Z,9.70
2017-07-20T06:57:54.751Z,10.10
2017-07-20T07:00:21.411Z,9.93
2017-07-20T07:02:48.088Z,9.50
2017-07-20T07:05:14.747Z,9.87
2017-07-20T07:07:41.415Z,11.00
2017-07-20T07:10:08.079Z,10.23
2017-07-20T07:12:34.748Z,10.27
2017-07-20T07:15:01.407Z,10.80
2017-07-20T07:17:28.074Z,11.40
2017-07-20T07:19:54.735Z,11.60
2017-07-20T07:22:21.399Z,12.43
2017-07-20T07:24:48.060Z,12.47
2017-07-20T07:27:14.728Z,11.77
2017-07-20T07:29:41.391Z,11.90
2017-07-20T07:32:08.059Z,11.67
2017-07-20T07:34:34.724Z,11.50
2017-07-20T07:37:01.392Z,11.93
2017-07-20T07:39:28.056Z,11.47
2017-07-20T07:41:54.739Z,12.43
2017-07-20T07:44:21.409Z,12.33
2017-07-20T07:46:48.088Z,12.43
2017-07-20T07:49:14.756Z,13.33
2017-07-20T07:51:41.423Z,12.80
2017-07-20T07:54:08.084Z,11.87
2017-07-20T07:56:34.748Z,11.70
2017-07-20T07:59:01.422Z,12.77
2017-07-20T08:01:28.092Z,13.30
2017-07-20T08:03:54.793Z,13.70
2017-07-20T08:06:21.467Z,14.85
2017-07-20T08:08:48.179Z,11.90
2017-07-20T08:11:14.847Z,13.57
2017-07-20T08:13:41.524Z,13.77
2017-07-20T08:16:08.197Z,13.30
2017-07-20T08:18:34.867Z,13.15
2017-07-20T08:21:01.544Z,12.63
2017-07-20T08:23:28.216Z,13.10
2017-07-20T08:25:54.892Z,13.43
2017-07-20T08:28:21.564Z,14.10
2017-07-20T08:30:48.236Z,13.18
2017-07-20T08:33:14.910Z,13.57
2017-07-20T08:35:41.583Z,13.18
2017-07-20T08:38:08.254Z,15.05
2017-07-20T08:40:34.927Z,14.95
2017-07-20T08:43:01.740Z,14.35
2017-07-20T08:45:28.415Z,13.88
2017-07-20T08:47:55.088Z,12.73
2017-07-20T08:50:21.763Z,12.70
2017-07-20T08:52:48.435Z,13.15
2017-07-20T08:55:15.108Z,12.25
2017-07-20T08:57:41.783Z,14.18
2017-07-20T09:00:08.460Z,13.77
2017-07-20T09:02:35.136Z,11.90
2017-07-20T09:05:01.818Z,13.77
2017-07-20T09:07:28.487Z,12.85
2017-07-20T09:09:55.164Z,10.70
2017-07-20T09:12:21.853Z,11.70
2017-07-20T09:14:48.550Z,11.13
2017-07-20T09:17:15.211Z,11.03
2017-07-20T09:19:41.901Z,10.60
2017-07-20T09:22:08.560Z,9.97
2017-07-20T09:24:35.235Z,10.13
2017-07-20T09:27:01.894Z,10.00
2017-07-20T09:29:28.563Z,10.37
2017-07-20T09:31:55.256Z,11.87
2017-07-20T09:34:21.927Z,11.53
2017-07-20T09:36:48.615Z,10.57
2017-07-20T09:39:15.276Z,11.03
2017-07-20T09:41:41.966Z,11.00
2017-07-20T09:44:08.622Z,12.77
2017-07-20T09:46:35.314Z,12.37
2017-07-20T09:49:01.979Z,12.83
2017-07-20T09:51:28.664Z,11.80
2017-07-20T09:53:55.325Z,11.50
2017-07-20T09:56:22.016Z,12.20
2017-07-20T09:58:48.756Z,11.70
2017-07-20T10:01:15.444Z,12.90
2017-07-20T10:03:42.108Z,11.27
2017-07-20T10:06:08.793Z,10.60
2017-07-20T10:08:35.459Z,11.20
2017-07-20T10:11:02.160Z,11.93
2017-07-20T10:13:28.827Z,12.37
2017-07-20T10:15:55.519Z,12.60
2017-07-20T10:18:22.184Z,12.03
2017-07-20T10:20:48.872Z,12.43
2017-07-20T10:23:15.539Z,12.30
2017-07-20T10:25:42.223Z,10.63
2017-07-20T10:28:08.886Z,12.07
2017-07-20T10:30:35.575Z,12.33
2017-07-20T10:33:02.246Z,11.33
2017-07-20T10:35:28.928Z,12.50
2017-07-20T10:37:55.599Z,11.60
2017-07-20T10:40:22.263Z,11.30
2017-07-20T10:42:48.930Z,11.90
2017-07-20T10:45:15.592Z,11.17
2017-07-20T10:47:42.259Z,12.80
2017-07-20T10:50:08.926Z,12.77
2017-07-20T10:52:35.592Z,12.53
2017-07-20T10:55:02.264Z,12.40
2017-07-20T10:57:28.940Z,11.60
2017-07-20T10:59:55.603Z,12.00
2017-07-20T11:02:22.302Z,11.93
2017-07-20T11:04:48.986Z,11.67
2017-07-20T11:07:15.671Z,11.93
2017-07-20T11:09:42.339Z,11.70
2017-07-20T11:12:09.130Z,10.60
2017-07-20T11:14:35.799Z,12.00
2017-07-20T11:17:02.486Z,10.13
2017-07-20T11:19:29.155Z,10.20
2017-07-20T11:21:55.839Z,8.50
2017-07-20T11:24:22.497Z,9.73
2017-07-20T11:26:49.183Z,9.10
2017-07-20T11:29:15.844Z,9.47
2017-07-20T11:31:42.523Z,8.90
2017-07-20T11:34:09.193Z,7.90
2017-07-20T11:36:35.888Z,9.03
2017-07-20T11:39:02.552Z,9.07
2017-07-20T11:41:29.244Z,9.60
2017-07-20T11:43:55.907Z,9.10
2017-07-20T11:46:22.595Z,9.80
2017-07-20T11:48:49.258Z,9.23
2017-07-20T11:51:15.924Z,9.13
2017-07-20T11:53:42.579Z,9.23
2017-07-20T11:56:09.236Z,8.77
2017-07-20T11:58:35.887Z,9.00
2017-07-20T12:01:02.546Z,8.20
2017-07-20T12:03:29.244Z,8.87
2017-07-20T12:05:55.900Z,7.40
2017-07-20T12:08:22.559Z,8.40
2017-07-20T12:10:49.209Z,7.80
2017-07-20T12:13:15.867Z,8.47
2017-07-20T12:15:42.528Z,8.57
2017-07-20T12:18:09.184Z,7.37
2017-07-20T12:20:35.843Z,8.27
2017-07-20T12:23:02.508Z,9.17
2017-07-20T12:25:29.165Z,7.80
2017-07-20T12:27:55.849Z,7.73
2017-07-20T12:30:22.505Z,7.40
2017-07-20T12:32:49.183Z,8.00
2017-07-20T12:35:15.844Z,8.60
2017-07-20T12:37:42.527Z,8.00
2017-07-20T12:40:09.180Z,8.50
2017-07-20T12:42:35.867Z,8.03
2017-07-20T12:45:02.516Z,8.07
2017-07-20T12:47:29.170Z,8.77
2017-07-20T12:49:55.824Z,7.80
2017-07-20T12:52:22.483Z,7.60
2017-07-20T12:54:49.135Z,7.90
2017-07-20T12:57:15.795Z,8.13
2017-07-20T12:59:42.471Z,9.10
2017-07-20T13:02:09.136Z,8.50
2017-07-20T13:04:35.787Z,8.40
2017-07-20T13:07:02.444Z,8.63
2017-07-20T13:09:29.103Z,7.87
2017-07-20T13:11:55.763Z,8.77
2017-07-20T13:14:22.416Z,8.53
2017-07-20T13:16:49.074Z,8.73
2017-07-20T13:19:15.727Z,7.97
2017-07-20T13:21:42.379Z,8.87
2017-07-20T13:24:09.044Z,8.83
2017-07-20T13:26:35.704Z,8.10
2017-07-20T13:29:02.360Z,8.87
2017-07-20T13:31:29.021Z,8.53
2017-07-20T13:33:55.679Z,9.00
2017-07-20T13:36:22.668Z,8.93
2017-07-20T13:38:49.349Z,8.83
2017-07-20T13:41:16.011Z,10.30
2017-07-20T13:43:42.705Z,9.23
2017-07-20T13:46:09.363Z,9.37
2017-07-20T13:48:36.055Z,9.70
2017-07-20T13:51:02.727Z,10.27
2017-07-20T13:53:29.420Z,9.73
2017-07-20T13:55:56.087Z,10.77
2017-07-20T13:58:22.758Z,10.67
2017-07-20T14:00:49.424Z,10.73
2017-07-20T14:03:16.088Z,10.20
2017-07-20T14:05:42.756Z,10.53
2017-07-20T14:08:09.428Z,11.00
2017-07-20T14:10:36.100Z,11.00
2017-07-20T14:13:02.782Z,11.20
2017-07-20T14:15:29.449Z,11.40
2017-07-20T14:17:56.108Z,11.80
2017-07-20T14:20:22.775Z,10.87
2017-07-20T14:22:49.447Z,11.80
2017-07-20T14:25:16.112Z,12.40
2017-07-20T14:27:42.775Z,11.27
2017-07-20T14:30:09.439Z,11.50
2017-07-20T14:32:36.390Z,11.87
2017-07-20T14:35:03.063Z,11.13
2017-07-20T14:37:29.727Z,13.43
2017-07-20T14:39:56.396Z,12.40
2017-07-20T14:42:23.059Z,13.00
2017-07-20T14:44:49.730Z,12.10
2017-07-20T14:47:16.404Z,11.77
2017-07-20T14:49:43.066Z,12.27
2017-07-20T14:52:09.740Z,11.60
2017-07-20T14:54:36.433Z,11.17
2017-07-20T14:57:03.111Z,11.90
2017-07-20T14:59:29.820Z,11.77
2017-07-20T15:01:56.486Z,12.20
2017-07-20T15:04:23.152Z,11.87
2017-07-20T15:06:49.824Z,11.00
2017-07-20T15:09:16.492Z,11.40
2017-07-20T15:11:43.163Z,11.03
2017-07-20T15:14:09.828Z,10.17
2017-07-20T15:16:36.519Z,10.50
2017-07-20T15:19:03.183Z,11.10
2017-07-20T15:21:29.848Z,10.40
2017-07-20T15:23:56.524Z,10.57
2017-07-20T15:26:23.223Z,9.67
2017-07-20T15:28:49.887Z,11.30
2017-07-20T15:31:16.576Z,9.47
2017-07-20T15:33:43.239Z,9.73
2017-07-20T15:36:09.924Z,9.80
2017-07-20T15:38:36.659Z,9.70
2017-07-20T15:41:03.344Z,9.40
2017-07-20T15:43:30.012Z,9.20
2017-07-20T15:45:56.703Z,9.50
2017-07-20T15:48:23.364Z,9.07
2017-07-20T15:50:50.047Z,9.07
2017-07-20T15:53:16.711Z,9.17
2017-07-20T15:55:43.399Z,9.13
2017-07-20T15:58:10.071Z,10.43
2017-07-20T16:00:36.775Z,9.90
2017-07-20T16:03:03.438Z,9.93
2017-07-20T16:05:30.098Z,9.53
2017-07-20T16:07:57.042Z,9.10
2017-07-20T16:10:23.695Z,8.80
2017-07-20T16:12:50.388Z,9.47
2017-07-20T16:15:17.053Z,9.23
2017-07-20T16:17:43.742Z,8.20
2017-07-20T16:20:10.412Z,8.47
2017-07-20T16:22:37.098Z,7.53
2017-07-20T16:25:03.762Z,7.20
2017-07-20T16:27:30.443Z,7.80
2017-07-20T16:29:57.096Z,8.60
2017-07-20T16:34:56.968Z,8.00
2017-07-20T16:37:23.653Z,7.20
2017-07-20T16:39:50.316Z,7.57
2017-07-20T16:42:16.999Z,7.60
2017-07-20T16:44:43.664Z,7.60
2017-07-20T16:47:10.347Z,6.40
2017-07-20T16:49:37.016Z,6.47
2017-07-20T16:52:03.699Z,5.80
2017-07-20T16:54:30.356Z,5.63
2017-07-20T16:56:57.038Z,5.10
2017-07-20T16:59:23.693Z,4.60
2017-07-20T17:01:50.401Z,5.00
2017-07-20T17:04:17.060Z,5.80
2017-07-20T17:06:43.743Z,5.50
2017-07-20T17:09:10.403Z,5.40
2017-07-20T17:11:37.067Z,5.67
2017-07-20T17:14:03.741Z,5.23
2017-07-20T17:16:30.395Z,6.00
2017-07-20T17:18:57.052Z,6.10
2017-07-20T17:21:23.715Z,5.97
2017-07-20T17:23:50.369Z,5.80
2017-07-20T17:26:17.040Z,4.93
2017-07-20T17:28:43.696Z,5.80
2017-07-20T17:31:10.347Z,5.77
2017-07-20T17:33:37.028Z,5.80
2017-07-20T17:36:03.725Z,6.20
2017-07-20T17:38:30.403Z,6.00
2017-07-20T17:40:57.055Z,5.73
2017-07-20T17:43:23.737Z,6.13
2017-07-20T17:45:50.396Z,5.93
2017-07-20T17:48:17.075Z,5.53
2017-07-20T17:50:43.730Z,5.73
2017-07-20T17:53:10.439Z,6.00
2017-07-20T17:55:37.096Z,5.47
2017-07-20T17:58:03.775Z,5.73
2017-07-20T18:00:30.423Z,5.50
2017-07-20T18:02:57.116Z,6.30
2017-07-20T18:05:23.775Z,6.13
2017-07-20T18:07:50.471Z,6.37
2017-07-20T18:10:17.136Z,5.70
2017-07-20T18:12:43.827Z,5.70
2017-07-20T18:15:10.496Z,6.20
2017-07-20T18:17:37.155Z,6.60
2017-07-20T18:20:03.811Z,6.07
2017-07-20T18:22:30.475Z,6.83
2017-07-20T18:24:57.145Z,6.50
2017-07-20T18:27:23.799Z,6.00
2017-07-20T18:29:50.463Z,6.70
2017-07-20T18:32:17.123Z,6.17
2017-07-20T18:34:43.776Z,5.33
2017-07-20T18:37:10.431Z,6.87
2017-07-20T18:39:37.093Z,6.17
2017-07-20T18:42:03.755Z,5.80
2017-07-20T18:44:30.783Z,5.63
2017-07-20T18:46:57.476Z,6.40
2017-07-20T18:49:24.167Z,5.30
2017-07-20T18:51:50.840Z,6.20
2017-07-20T18:54:17.534Z,6.97
2017-07-20T18:56:44.196Z,6.20
2017-07-20T18:59:10.876Z,5.50
2017-07-20T19:01:37.535Z,6.90
2017-07-20T19:04:04.223Z,6.40
2017-07-20T19:06:30.893Z,6.43
2017-07-20T19:08:57.595Z,7.10
2017-07-20T19:11:24.260Z,6.50
2017-07-20T19:13:50.954Z,6.93
2017-07-20T19:16:17.617Z,6.60
2017-07-20T19:18:44.279Z,7.43
2017-07-20T19:21:10.947Z,6.57
2017-07-20T19:23:37.611Z,7.95
2017-07-20T19:26:04.280Z,7.22
2017-07-20T19:28:30.944Z,7.90
2017-07-20T19:30:57.620Z,8.48
2017-07-20T19:33:24.288Z,8.43
2017-07-20T19:35:50.959Z,8.38
2017-07-20T19:38:17.638Z,7.55
2017-07-20T19:40:44.307Z,8.77
2017-07-20T19:43:10.981Z,8.10
2017-07-20T19:45:37.647Z,7.50
2017-07-20T19:48:04.333Z,8.73
2017-07-20T19:50:30.999Z,8.18
2017-07-20T19:52:57.688Z,8.15
2017-07-20T19:55:24.363Z,9.05
2017-07-20T19:57:51.024Z,7.90
2017-07-20T20:00:17.696Z,9.52
2017-07-20T20:02:44.354Z,9.10
2017-07-20T20:05:11.024Z,8.27
2017-07-20T20:07:37.687Z,9.45
2017-07-20T20:10:04.356Z,9.30
2017-07-20T20:12:31.029Z,8.63
2017-07-20T20:14:57.710Z,9.23
2017-07-20T20:17:24.375Z,9.32
2017-07-20T20:19:51.064Z,9.63
2017-07-20T20:22:17.738Z,10.05
2017-07-20T20:24:44.427Z,9.27
2017-07-20T20:27:11.092Z,9.10
2017-07-20T20:29:37.768Z,9.10
2017-07-20T20:32:04.430Z,8.13
2017-07-20T20:34:31.105Z,9.45
2017-07-20T20:36:57.776Z,10.27
2017-07-20T20:39:24.455Z,10.57
2017-07-20T20:41:51.148Z,9.23
2017-07-20T20:44:17.810Z,9.80
2017-07-20T20:46:44.484Z,9.48
2017-07-20T20:49:11.155Z,10.52
2017-07-20T20:51:37.829Z,50.75
2017-07-20T20:54:04.505Z,97.97
2017-07-20T20:56:31.187Z,618.53
2017-07-20T20:58:57.867Z,759.55
2017-07-20T21:01:24.557Z,954.50
2017-07-20T21:03:51.231Z,862.15
2017-07-20T21:06:17.906Z,795.05
2017-07-20T21:08:44.595Z,671.85
2017-07-20T21:11:11.617Z,581.53
2017-07-20T21:13:38.291Z,465.60
2017-07-20T21:16:04.967Z,422.40
2017-07-20T21:18:31.652Z,267.87
2017-07-20T21:20:58.334Z,226.07
2017-07-20T21:23:25.015Z,285.70
2017-07-20T21:25:51.695Z,150.65
2017-07-20T21:28:18.379Z,149.12
2017-07-20T21:30:45.060Z,196.00
2017-07-20T21:33:11.734Z,163.20
2017-07-20T21:35:38.415Z,155.87
2017-07-20T21:38:05.109Z,155.55
2017-07-20T21:40:31.786Z,107.30
2017-07-20T21:42:58.460Z,142.55
2017-07-20T21:45:25.131Z,99.37
2017-07-20T21:47:51.820Z,98.30
2017-07-20T21:50:18.500Z,113.78
2017-07-20T21:52:45.200Z,89.22
2017-07-20T21:55:11.869Z,70.07
2017-07-20T21:57:38.563Z,73.12
2017-07-20T22:00:05.226Z,64.85
2017-07-20T22:02:31.920Z,51.92
2017-07-20T22:04:58.587Z,49.65
2017-07-20T22:07:25.276Z,38.15
2017-07-20T22:09:51.956Z,33.05
2017-07-20T22:12:18.647Z,22.52
2017-07-20T22:14:45.325Z,15.88
2017-07-20T22:17:12.017Z,11.65
2017-07-20T22:19:38.683Z,9.48
2017-07-20T22:22:05.368Z,8.35
2017-07-20T22:24:32.852Z,9.75
2017-07-20T22:26:59.546Z,9.05
2017-07-20T22:29:26.219Z,9.35
2017-07-20T22:31:52.916Z,11.27
2017-07-20T22:34:19.584Z,8.00
2017-07-20T22:36:46.267Z,8.05
2017-07-20T22:39:12.923Z,8.52
2017-07-20T22:41:39.611Z,8.55
2017-07-20T22:44:06.267Z,7.93
2017-07-20T22:46:32.952Z,9.05
2017-07-20T22:48:59.603Z,7.07
2017-07-20T22:51:26.259Z,8.30
2017-07-20T22:53:52.920Z,7.57
2017-07-20T22:56:19.580Z,7.65
2017-07-20T22:58:46.240Z,6.95
2017-07-20T23:01:12.904Z,6.03
2017-07-20T23:03:39.566Z,6.32
2017-07-20T23:06:06.224Z,5.75
2017-07-20T23:08:32.883Z,5.32
2017-07-20T23:10:59.551Z,5.87
2017-07-20T23:13:26.211Z,7.60
2017-07-20T23:15:52.870Z,5.60
2017-07-20T23:18:19.595Z,5.25
2017-07-20T23:20:46.250Z,5.93
2017-07-20T23:23:12.940Z,5.47
2017-07-20T23:25:39.608Z,5.20
2017-07-20T23:28:06.286Z,5.35
2017-07-20T23:30:32.949Z,7.18
2017-07-20T23:32:59.627Z,6.15
2017-07-20T23:35:26.305Z,6.40
2017-07-20T23:37:53.003Z,6.25
2017-07-20T23:40:19.660Z,6.80
2017-07-20T23:42:46.347Z,5.82
2017-07-20T23:45:13.012Z,6.35
2017-07-20T23:47:39.695Z,6.12
2017-07-20T23:50:06.356Z,6.28
2017-07-20T23:52:33.039Z,6.12
2017-07-20T23:54:59.695Z,7.47
2017-07-20T23:57:26.375Z,6.95
2017-07-20T23:59:53.040Z,6.90
